Skip Navigation Links Skip Navigation Links

Current Weather

Schaumburg Regional, Chicago/Schaumburg, Ill.

For information only: do not use for flight planning or navigation.
Latest weather
Observation time Wednesday, October 27, 2021 12:55 AM CDT
Local time Wednesday, October 27, 2021 1:15 AM CDT
Flight conditions Visual Meteorological Conditions
Winds
Wind speed calm
Visibility 10 mi.
Sky condition
Ceiling unlimited
Sky clear
Temperature 38°F
Dewpoint 36°F
Altimeter 30.03 in.Hg
Derived measurements
Relative humidity 94%
Wind chill 38°F
Density altitude -662 ft.
Climate data
Temperature minimum, last 6 hours 37°F
Temperature maximum, last 6 hours 48°F
Temperature minimum, last 24 hours 37°F
Temperature maximum, last 24 hours 57°F
Remarks
Fully automated report.
Automated weather observing station with precipitation discriminator.
METAR K06C 270555Z AUTO 00000KT 10SM CLR 03/02 A3003 RMK AO2 T00310023 10089 20030 401380030

Settings

Location code

InnerDrive.Weather 4.0.6770.0 Release CLR 4.0.30319.42000
Copyright ©2018 Inner Drive Technology. All rights reserved. Portions Copyright ©1986-2018 David Braverman.

Find weather

Site navigation


Skip Navigation Links

Place info

Page info

PayPal - The safer, easier way to pay online!

Return home.

Copyright ©2021 Inner Drive Technology. Purveyors of fine, hand-crafted computer software. Page printed 2021-10-27T06:15:17 UTC.